createdAt,value
2018-12-14T00:01:08.109Z,11.23
2018-12-14T00:03:34.283Z,13.30
2018-12-14T00:06:00.157Z,13.97
2018-12-14T00:08:26.091Z,13.20
2018-12-14T00:10:51.967Z,12.90
2018-12-14T00:13:17.982Z,15.23
2018-12-14T00:15:43.895Z,13.40
2018-12-14T00:18:09.854Z,12.00
2018-12-14T00:20:35.745Z,13.43
2018-12-14T00:23:01.624Z,14.80
2018-12-14T00:25:27.543Z,12.17
2018-12-14T00:27:53.444Z,13.40
2018-12-14T00:30:19.431Z,11.97
2018-12-14T00:32:45.333Z,13.63
2018-12-14T00:35:11.282Z,12.97
2018-12-14T00:37:37.186Z,13.10
2018-12-14T00:40:04.070Z,14.33
2018-12-14T00:42:29.934Z,13.17
2018-12-14T00:44:55.825Z,13.40
2018-12-14T00:47:21.759Z,13.10
2018-12-14T00:49:47.629Z,14.77
2018-12-14T00:52:13.587Z,15.83
2018-12-14T00:54:39.565Z,13.67
2018-12-14T00:57:05.455Z,12.93
2018-12-14T00:59:31.307Z,12.60
2018-12-14T01:01:57.207Z,16.07
2018-12-14T01:04:23.087Z,12.37
2018-12-14T01:06:49.015Z,14.93
2018-12-14T01:09:14.923Z,15.40
2018-12-14T01:11:40.932Z,14.67
2018-12-14T01:14:06.795Z,16.23
2018-12-14T01:16:32.818Z,13.53
2018-12-14T01:18:58.715Z,15.47
2018-12-14T01:21:24.565Z,13.30
2018-12-14T01:23:50.520Z,14.27
2018-12-14T01:26:16.421Z,15.53
2018-12-14T01:28:42.321Z,13.40
2018-12-14T01:31:08.212Z,13.43
2018-12-14T01:33:34.281Z,14.30
2018-12-14T01:36:00.164Z,14.40
2018-12-14T01:38:26.018Z,14.00
2018-12-14T01:40:51.930Z,14.63
2018-12-14T01:43:17.819Z,13.27
2018-12-14T01:45:43.698Z,15.13
2018-12-14T01:48:09.602Z,13.30
2018-12-14T01:50:35.498Z,15.50
2018-12-14T01:53:01.358Z,15.93
2018-12-14T01:55:27.210Z,14.90
2018-12-14T01:57:53.231Z,15.40
2018-12-14T02:00:19.171Z,14.80
2018-12-14T02:02:45.154Z,14.97
2018-12-14T02:05:11.015Z,13.63
2018-12-14T02:07:37.102Z,13.83
2018-12-14T02:10:03.398Z,14.73
2018-12-14T02:12:29.286Z,14.00
2018-12-14T02:14:55.188Z,14.80
2018-12-14T02:17:21.055Z,14.17
2018-12-14T02:19:46.972Z,15.40
2018-12-14T02:22:12.934Z,15.50
2018-12-14T02:24:38.851Z,13.40
2018-12-14T02:27:04.888Z,14.57
2018-12-14T02:29:30.845Z,15.60
2018-12-14T02:31:56.730Z,14.03
2018-12-14T02:34:22.600Z,12.93
2018-12-14T02:36:48.551Z,14.53
2018-12-14T02:39:14.424Z,14.87
2018-12-14T02:41:40.317Z,14.83
2018-12-14T02:44:06.235Z,14.80
2018-12-14T02:46:32.114Z,13.20
2018-12-14T02:48:58.015Z,12.30
2018-12-14T02:51:23.907Z,13.37
2018-12-14T02:53:49.794Z,15.33
2018-12-14T02:56:15.683Z,12.87
2018-12-14T02:58:41.709Z,13.27
2018-12-14T03:01:07.603Z,15.50
2018-12-14T03:03:33.491Z,15.17
2018-12-14T03:05:59.361Z,13.40
2018-12-14T03:08:25.342Z,14.37
2018-12-14T03:10:51.298Z,13.97
2018-12-14T03:13:17.204Z,15.37
2018-12-14T03:15:43.090Z,14.87
2018-12-14T03:18:09.017Z,17.00
2018-12-14T03:20:34.997Z,14.33
2018-12-14T03:23:00.974Z,13.40
2018-12-14T03:25:26.974Z,13.33
2018-12-14T03:27:52.943Z,13.70
2018-12-14T03:30:18.828Z,12.93
2018-12-14T03:32:44.741Z,14.90
2018-12-14T03:35:10.658Z,14.03
2018-12-14T03:37:36.535Z,17.53
2018-12-14T03:40:03.591Z,16.10
2018-12-14T03:42:34.397Z,12.83
2018-12-14T03:44:57.548Z,13.80
2018-12-14T03:47:24.334Z,12.37
2018-12-14T03:49:50.211Z,14.60
2018-12-14T03:52:16.189Z,13.77
2018-12-14T03:54:42.134Z,13.97
2018-12-14T03:57:08.057Z,13.13
2018-12-14T03:59:34.024Z,15.87
2018-12-14T04:01:59.941Z,14.00
2018-12-14T04:04:25.842Z,12.40
2018-12-14T04:06:51.740Z,13.10
2018-12-14T04:09:17.674Z,13.23
2018-12-14T04:11:43.571Z,12.10
2018-12-14T04:14:09.444Z,12.83
2018-12-14T04:16:35.351Z,13.37
2018-12-14T04:19:01.358Z,13.47
2018-12-14T04:21:34.347Z,12.57
2018-12-14T04:24:00.211Z,12.50
2018-12-14T04:26:26.262Z,12.87
2018-12-14T04:28:52.154Z,12.80
2018-12-14T04:31:18.023Z,13.50
2018-12-14T04:33:44.093Z,12.30
2018-12-14T04:36:09.978Z,12.87
2018-12-14T04:38:35.886Z,13.20
2018-12-14T04:41:01.856Z,8.03
2018-12-14T04:43:34.714Z,13.20
2018-12-14T04:46:00.605Z,12.73
2018-12-14T04:48:26.530Z,12.17
2018-12-14T04:50:52.422Z,13.57
2018-12-14T04:53:18.326Z,14.43
2018-12-14T04:55:44.207Z,12.90
2018-12-14T04:58:10.106Z,12.60
2018-12-14T05:00:36.010Z,12.87
2018-12-14T05:03:01.908Z,12.50
2018-12-14T05:05:27.778Z,13.87
2018-12-14T05:07:53.683Z,15.17
2018-12-14T05:10:19.570Z,13.83
2018-12-14T05:12:45.525Z,14.80
2018-12-14T05:15:11.467Z,12.33
2018-12-14T05:17:37.467Z,12.97
2018-12-14T05:20:04.648Z,14.20
2018-12-14T05:22:30.511Z,14.10
2018-12-14T05:24:56.385Z,15.60
2018-12-14T05:27:22.385Z,15.10
2018-12-14T05:29:48.614Z,13.57
2018-12-14T05:32:14.492Z,13.50
2018-12-14T05:34:40.339Z,15.90
2018-12-14T05:37:06.224Z,13.53
2018-12-14T05:39:32.097Z,15.53
2018-12-14T05:41:58.116Z,14.20
2018-12-14T05:44:23.991Z,14.80
2018-12-14T05:46:49.870Z,13.90
2018-12-14T05:49:15.785Z,15.10
2018-12-14T05:51:41.648Z,16.60
2018-12-14T05:54:07.498Z,12.90
2018-12-14T05:56:33.486Z,13.10
2018-12-14T05:58:59.414Z,14.87
2018-12-14T06:01:25.318Z,12.50
2018-12-14T06:03:51.651Z,13.20
2018-12-14T06:06:17.570Z,13.47
2018-12-14T06:08:43.446Z,12.27
2018-12-14T06:11:09.345Z,10.30
2018-12-14T06:13:35.248Z,13.50
2018-12-14T06:16:01.166Z,13.03
2018-12-14T06:18:27.031Z,13.60
2018-12-14T06:20:52.921Z,13.43
2018-12-14T06:23:18.783Z,11.80
2018-12-14T06:25:44.649Z,12.60
2018-12-14T06:28:10.540Z,13.00
2018-12-14T06:30:36.557Z,14.53
2018-12-14T06:33:02.434Z,13.27
2018-12-14T06:35:28.331Z,13.93
2018-12-14T06:37:54.222Z,13.43
2018-12-14T06:40:20.123Z,12.37
2018-12-14T06:42:46.024Z,12.83
2018-12-14T06:45:12.377Z,13.60
2018-12-14T06:47:38.273Z,12.50
2018-12-14T06:50:04.804Z,13.50
2018-12-14T06:52:30.713Z,13.30
2018-12-14T06:54:56.614Z,12.40
2018-12-14T06:57:22.583Z,11.37
2018-12-14T06:59:48.465Z,11.90
2018-12-14T07:02:14.344Z,12.97
2018-12-14T07:04:40.393Z,10.97
2018-12-14T07:07:06.312Z,13.20
2018-12-14T07:09:32.825Z,13.53
2018-12-14T07:11:58.676Z,14.60
2018-12-14T07:14:24.547Z,13.70
2018-12-14T07:16:50.505Z,12.20
2018-12-14T07:19:16.514Z,12.70
2018-12-14T07:21:42.390Z,12.70
2018-12-14T07:24:08.385Z,12.33
2018-12-14T07:26:34.593Z,12.17
2018-12-14T07:29:00.907Z,13.60
2018-12-14T07:31:26.764Z,12.33
2018-12-14T07:33:52.642Z,13.27
2018-12-14T07:36:18.601Z,11.83
2018-12-14T07:38:48.144Z,11.60
2018-12-14T07:41:12.519Z,12.80
2018-12-14T07:43:38.416Z,12.07
2018-12-14T07:46:04.391Z,11.80
2018-12-14T07:48:30.255Z,10.90
2018-12-14T07:50:56.149Z,11.03
2018-12-14T07:53:22.087Z,11.87
2018-12-14T07:55:47.963Z,12.00
2018-12-14T07:58:13.820Z,12.00
2018-12-14T08:00:39.732Z,12.20
2018-12-14T08:03:05.575Z,10.47
2018-12-14T08:05:31.450Z,10.37
2018-12-14T08:07:57.362Z,10.93
2018-12-14T08:10:23.474Z,11.80
2018-12-14T08:12:49.990Z,11.80
2018-12-14T08:15:16.206Z,13.40
2018-12-14T08:17:42.082Z,12.90
2018-12-14T08:20:07.991Z,12.00
2018-12-14T08:22:33.974Z,10.60
2018-12-14T08:24:59.847Z,11.07
2018-12-14T08:27:25.718Z,11.67
2018-12-14T08:29:51.908Z,10.87
2018-12-14T08:32:18.022Z,11.90
2018-12-14T08:34:43.899Z,11.73
2018-12-14T08:37:09.848Z,12.30
2018-12-14T08:39:35.735Z,11.20
2018-12-14T08:42:01.594Z,10.90
2018-12-14T08:44:27.534Z,15.20
2018-12-14T08:46:53.378Z,10.80
2018-12-14T08:49:19.302Z,13.17
2018-12-14T08:51:45.201Z,13.17
2018-12-14T08:54:11.110Z,13.33
2018-12-14T08:56:36.981Z,11.77
2018-12-14T08:59:02.902Z,11.40
2018-12-14T09:01:28.797Z,11.80
2018-12-14T09:03:54.740Z,12.00
2018-12-14T09:06:20.722Z,11.03
2018-12-14T09:08:46.620Z,8.93
2018-12-14T09:11:13.513Z,11.90
2018-12-14T09:13:39.438Z,12.07
2018-12-14T09:16:05.348Z,13.57
2018-12-14T09:18:31.958Z,9.50
2018-12-14T09:21:01.079Z,10.73
2018-12-14T09:23:25.795Z,13.03
2018-12-14T09:25:51.855Z,9.90
2018-12-14T09:28:17.680Z,11.20
2018-12-14T09:30:43.582Z,11.80
2018-12-14T09:33:09.460Z,11.87
2018-12-14T09:35:35.399Z,11.97
2018-12-14T09:38:01.280Z,11.97
2018-12-14T09:43:07.314Z,14.20
2018-12-14T09:45:33.197Z,10.00
2018-12-14T09:47:59.026Z,12.90
2018-12-14T09:50:24.897Z,11.50
2018-12-14T09:52:50.779Z,12.60
2018-12-14T09:55:16.661Z,13.80
2018-12-14T09:57:42.592Z,11.97
2018-12-14T10:00:08.595Z,12.40
2018-12-14T10:02:34.490Z,13.63
2018-12-14T10:05:00.361Z,13.00
2018-12-14T10:07:26.218Z,13.50
2018-12-14T10:09:52.074Z,12.17
2018-12-14T10:12:17.899Z,11.70
2018-12-14T10:14:43.722Z,10.67
2018-12-14T10:17:09.558Z,11.60
2018-12-14T10:19:35.403Z,14.43
2018-12-14T10:22:08.397Z,13.70
2018-12-14T10:24:34.355Z,13.67
2018-12-14T10:27:00.189Z,11.30
2018-12-14T10:29:26.086Z,13.30
2018-12-14T10:31:51.947Z,14.40
2018-12-14T10:34:17.810Z,12.37
2018-12-14T10:36:43.677Z,15.63
2018-12-14T10:39:09.514Z,12.43
2018-12-14T10:41:35.363Z,13.93
2018-12-14T10:44:07.236Z,14.07
2018-12-14T10:46:29.442Z,12.60
2018-12-14T10:48:55.307Z,16.47
2018-12-14T10:51:21.151Z,11.27
2018-12-14T10:53:46.989Z,13.37
2018-12-14T10:56:12.847Z,14.07
2018-12-14T10:58:38.702Z,14.03
2018-12-14T11:01:14.255Z,13.20
2018-12-14T11:06:31.399Z,15.50
2018-12-14T11:08:57.255Z,14.23
2018-12-14T11:11:23.221Z,14.40
2018-12-14T11:13:49.229Z,14.47
2018-12-14T11:16:15.095Z,15.63
2018-12-14T11:18:40.977Z,14.97
2018-12-14T11:21:06.834Z,15.10
2018-12-14T11:23:32.700Z,13.63
2018-12-14T11:25:58.602Z,15.40
2018-12-14T11:28:24.451Z,14.70
2018-12-14T11:30:50.316Z,13.87
2018-12-14T11:33:16.326Z,14.93
2018-12-14T11:35:42.211Z,16.33
2018-12-14T11:38:08.179Z,15.97
2018-12-14T11:40:34.085Z,15.60
2018-12-14T11:42:59.974Z,13.40
2018-12-14T11:45:25.849Z,15.20
2018-12-14T11:47:51.739Z,15.93
2018-12-14T11:50:17.609Z,14.23
2018-12-14T11:52:43.529Z,15.23
2018-12-14T11:55:09.410Z,15.73
2018-12-14T11:57:35.264Z,14.73
2018-12-14T12:00:01.199Z,15.50
2018-12-14T12:02:27.165Z,15.00
2018-12-14T12:04:52.995Z,15.67
2018-12-14T12:07:18.866Z,13.17
2018-12-14T12:09:44.747Z,14.60
2018-12-14T12:12:10.610Z,15.13
2018-12-14T12:14:36.477Z,13.90
2018-12-14T12:17:02.465Z,14.80
2018-12-14T12:19:28.334Z,16.83
2018-12-14T12:21:54.227Z,14.67
2018-12-14T12:24:20.313Z,15.63
2018-12-14T12:26:46.171Z,15.23
2018-12-14T12:29:12.027Z,14.53
2018-12-14T12:31:44.860Z,13.57
2018-12-14T12:34:10.718Z,13.70
2018-12-14T12:36:36.773Z,15.50
2018-12-14T12:39:04.426Z,14.00
2018-12-14T12:41:30.326Z,14.50
2018-12-14T12:43:56.206Z,14.80
2018-12-14T12:46:22.114Z,16.00
2018-12-14T12:48:48.164Z,13.20
2018-12-14T12:51:14.142Z,15.70
2018-12-14T12:53:40.027Z,16.50
2018-12-14T12:56:05.879Z,14.47
2018-12-14T12:58:31.688Z,15.20
2018-12-14T13:00:57.545Z,15.37
2018-12-14T13:03:23.453Z,14.30
2018-12-14T13:05:49.330Z,15.00
2018-12-14T13:08:15.184Z,12.07
2018-12-14T13:10:41.065Z,12.83
2018-12-14T13:13:06.891Z,14.63
2018-12-14T13:15:32.741Z,13.57
2018-12-14T13:17:58.628Z,11.27
2018-12-14T13:20:24.494Z,13.90
2018-12-14T13:22:50.411Z,11.30
2018-12-14T13:25:23.251Z,11.23
2018-12-14T13:27:49.219Z,11.33
2018-12-14T13:30:15.113Z,12.83
2018-12-14T13:32:41.035Z,12.60
2018-12-14T13:35:06.886Z,10.43
2018-12-14T13:37:32.893Z,10.67
2018-12-14T13:39:58.773Z,10.97
2018-12-14T13:42:24.751Z,11.63
2018-12-14T13:44:51.041Z,12.93
2018-12-14T13:47:17.168Z,12.20
2018-12-14T13:49:43.064Z,12.97
2018-12-14T13:52:09.038Z,11.80
2018-12-14T13:54:34.924Z,14.10
2018-12-14T13:57:00.842Z,12.53
2018-12-14T13:59:26.695Z,10.60
2018-12-14T14:01:52.546Z,12.70
2018-12-14T14:04:18.414Z,11.40
2018-12-14T14:06:44.317Z,11.20
2018-12-14T14:09:10.239Z,11.20
2018-12-14T14:11:36.134Z,11.80
2018-12-14T14:14:02.091Z,11.40
2018-12-14T14:16:27.957Z,10.63
2018-12-14T14:18:53.944Z,10.33
2018-12-14T14:21:19.929Z,13.50
2018-12-14T14:23:45.839Z,14.53
2018-12-14T14:26:11.730Z,11.30
2018-12-14T14:28:37.585Z,12.23
2018-12-14T14:31:03.465Z,11.00
2018-12-14T14:33:29.354Z,13.60
2018-12-14T14:35:55.465Z,11.50
2018-12-14T14:38:21.356Z,13.30
2018-12-14T14:40:47.276Z,13.50
2018-12-14T14:43:13.162Z,12.17
2018-12-14T14:45:39.117Z,12.53
2018-12-14T14:48:05.025Z,10.93
2018-12-14T14:53:25.793Z,10.33
2018-12-14T14:55:51.665Z,15.20
2018-12-14T14:58:17.545Z,11.63
2018-12-14T15:00:43.570Z,12.80
2018-12-14T15:03:09.745Z,14.37
2018-12-14T15:05:35.686Z,12.43
2018-12-14T15:08:01.555Z,10.80
2018-12-14T15:10:27.418Z,12.63
2018-12-14T15:12:53.304Z,12.90
2018-12-14T15:15:19.215Z,13.53
2018-12-14T15:17:45.196Z,12.67
2018-12-14T15:20:11.109Z,12.37
2018-12-14T15:22:36.974Z,15.20
2018-12-14T15:25:03.073Z,12.97
2018-12-14T15:27:29.023Z,13.07
2018-12-14T15:29:54.978Z,15.60
2018-12-14T15:32:21.173Z,14.00
2018-12-14T15:34:47.040Z,12.93
2018-12-14T15:37:12.980Z,13.13
2018-12-14T15:39:38.857Z,14.60
2018-12-14T15:42:04.789Z,12.07
2018-12-14T15:44:30.712Z,13.93
2018-12-14T15:46:56.628Z,13.13
2018-12-14T15:49:22.591Z,13.87
2018-12-14T15:51:48.499Z,13.83
2018-12-14T15:54:14.436Z,12.03
2018-12-14T15:56:40.317Z,14.47
2018-12-14T15:59:06.281Z,11.67
2018-12-14T16:01:32.203Z,12.53
2018-12-14T16:03:58.123Z,15.40
2018-12-14T16:06:24.018Z,12.87
2018-12-14T16:08:49.938Z,12.10
2018-12-14T16:11:15.838Z,13.97
2018-12-14T16:13:41.744Z,13.47
2018-12-14T16:16:07.646Z,15.43
2018-12-14T16:18:33.575Z,14.47
2018-12-14T16:20:59.604Z,13.93
2018-12-14T16:23:25.563Z,12.30
2018-12-14T16:25:52.583Z,11.40
2018-12-14T16:28:18.613Z,14.57
2018-12-14T16:30:44.515Z,10.50
2018-12-14T16:33:10.450Z,13.43
2018-12-14T16:35:43.475Z,13.10
2018-12-14T16:38:09.383Z,14.03
2018-12-14T16:40:35.273Z,13.80
2018-12-14T16:43:01.145Z,12.97
2018-12-14T16:45:27.058Z,12.03
2018-12-14T16:47:53.895Z,14.47
2018-12-14T16:50:19.769Z,16.90
2018-12-14T16:52:47.611Z,17.90
2018-12-14T16:55:13.873Z,15.30
2018-12-14T16:57:39.782Z,13.20
2018-12-14T17:00:06.877Z,14.53
2018-12-14T17:02:32.781Z,24.50
2018-12-14T17:04:58.658Z,16.80
2018-12-14T17:07:24.665Z,17.83
2018-12-14T17:09:50.659Z,17.40
2018-12-14T17:12:16.764Z,13.13
2018-12-14T17:14:42.677Z,12.37
2018-12-14T17:17:08.550Z,15.30
2018-12-14T17:19:34.440Z,15.30
2018-12-14T17:22:00.310Z,13.90
2018-12-14T17:24:26.272Z,13.63
2018-12-14T17:26:52.878Z,13.50
2018-12-14T17:29:18.958Z,11.47
2018-12-14T17:31:44.885Z,19.07
2018-12-14T17:34:11.501Z,10.50
2018-12-14T17:36:38.320Z,11.80
2018-12-14T17:39:04.828Z,15.50
2018-12-14T17:41:30.731Z,14.87
2018-12-14T17:43:57.694Z,13.93
2018-12-14T17:46:23.667Z,12.60
2018-12-14T17:48:49.570Z,13.53
2018-12-14T17:51:15.465Z,11.90
2018-12-14T17:53:41.740Z,13.10
2018-12-14T17:56:07.657Z,13.57
2018-12-14T17:58:33.534Z,13.63
2018-12-14T18:00:59.461Z,11.80
2018-12-14T18:03:25.361Z,13.03
2018-12-14T18:05:51.864Z,13.60
2018-12-14T18:08:17.770Z,12.33
2018-12-14T18:10:43.706Z,14.00
2018-12-14T18:13:09.731Z,13.93
2018-12-14T18:15:35.585Z,15.57
2018-12-14T18:18:01.492Z,12.83
2018-12-14T18:20:27.444Z,14.03
2018-12-14T18:22:53.660Z,12.60
2018-12-14T18:25:20.019Z,13.63
2018-12-14T18:27:46.019Z,13.30
2018-12-14T18:30:12.045Z,12.10
2018-12-14T18:32:37.910Z,11.60
2018-12-14T18:35:04.922Z,14.80
2018-12-14T18:37:30.901Z,13.40
2018-12-14T18:39:56.840Z,13.67
2018-12-14T18:42:22.778Z,14.17
2018-12-14T18:44:48.748Z,16.40
2018-12-14T18:47:14.784Z,15.10
2018-12-14T18:49:40.848Z,13.13
2018-12-14T18:52:06.759Z,13.97
2018-12-14T18:54:33.047Z,15.40
2018-12-14T18:56:58.975Z,15.73
2018-12-14T18:59:25.219Z,14.90
2018-12-14T19:01:51.597Z,14.73
2018-12-14T19:04:17.538Z,15.40
2018-12-14T19:06:43.512Z,14.70
2018-12-14T19:09:09.455Z,14.77
2018-12-14T19:11:35.369Z,13.60
2018-12-14T19:14:01.425Z,13.47
2018-12-14T19:16:27.355Z,14.60
2018-12-14T19:18:53.235Z,12.47
2018-12-14T19:21:19.116Z,14.27
2018-12-14T19:23:45.106Z,16.23
2018-12-14T19:26:11.076Z,13.80
2018-12-14T19:28:37.230Z,16.33
2018-12-14T19:31:03.192Z,13.93
2018-12-14T19:33:29.208Z,15.20
2018-12-14T19:35:55.175Z,15.07
2018-12-14T19:38:21.211Z,15.77
2018-12-14T19:40:47.135Z,17.90
2018-12-14T19:43:13.002Z,14.20
2018-12-14T19:45:38.926Z,14.80
2018-12-14T19:48:04.826Z,14.93
2018-12-14T19:50:30.727Z,14.50
2018-12-14T19:52:56.666Z,16.03
2018-12-14T19:55:22.669Z,15.93
2018-12-14T19:57:48.655Z,14.73
2018-12-14T20:00:14.709Z,14.37
2018-12-14T20:02:40.748Z,17.10
2018-12-14T20:05:07.251Z,16.23
2018-12-14T20:07:33.151Z,14.93
2018-12-14T20:09:59.059Z,13.90
2018-12-14T20:12:24.953Z,14.83
2018-12-14T20:14:50.862Z,15.20
2018-12-14T20:17:16.969Z,15.10
2018-12-14T20:19:42.841Z,15.63
2018-12-14T20:22:15.812Z,15.93
2018-12-14T20:24:41.697Z,15.73
2018-12-14T20:27:07.714Z,16.20
2018-12-14T20:29:33.607Z,12.77
2018-12-14T20:31:59.488Z,14.10
2018-12-14T20:34:25.394Z,16.50
2018-12-14T20:36:51.332Z,14.53
2018-12-14T20:39:17.354Z,16.63
2018-12-14T20:41:43.278Z,13.33
2018-12-14T20:44:09.233Z,16.23
2018-12-14T20:46:35.264Z,16.77
2018-12-14T20:49:01.181Z,17.47
2018-12-14T20:51:27.157Z,16.73
2018-12-14T20:53:53.054Z,15.00
2018-12-14T20:56:18.995Z,15.50
2018-12-14T20:58:44.952Z,16.13
2018-12-14T21:01:10.859Z,15.93
2018-12-14T21:03:36.782Z,17.20
2018-12-14T21:06:02.758Z,17.17
2018-12-14T21:08:28.764Z,16.07
2018-12-14T21:10:54.618Z,15.77
2018-12-14T21:13:20.566Z,16.10
2018-12-14T21:15:46.480Z,18.87
2018-12-14T21:18:12.387Z,17.30
2018-12-14T21:20:38.469Z,15.73
2018-12-14T21:23:04.438Z,17.70
2018-12-14T21:25:30.299Z,18.83
2018-12-14T21:27:56.195Z,15.67
2018-12-14T21:30:22.071Z,16.17
2018-12-14T21:32:47.906Z,17.30
2018-12-14T21:35:13.787Z,15.67
2018-12-14T21:37:46.618Z,20.63
2018-12-14T21:40:12.539Z,19.03
2018-12-14T21:42:38.402Z,17.27
2018-12-14T21:45:05.721Z,17.00
2018-12-14T21:47:31.672Z,16.10
2018-12-14T21:49:57.597Z,14.93
2018-12-14T21:52:23.528Z,15.00
2018-12-14T21:54:49.413Z,17.63
2018-12-14T21:57:15.368Z,15.63
2018-12-14T21:59:41.225Z,16.00
2018-12-14T22:02:07.203Z,16.57
2018-12-14T22:04:33.243Z,17.20
2018-12-14T22:06:59.160Z,16.10
2018-12-14T22:09:25.081Z,15.70
2018-12-14T22:11:51.104Z,16.73
2018-12-14T22:14:17.000Z,17.00
2018-12-14T22:16:42.885Z,16.07
2018-12-14T22:19:08.818Z,17.20
2018-12-14T22:21:34.683Z,18.87
2018-12-14T22:24:00.562Z,15.37
2018-12-14T22:26:26.430Z,18.30
2018-12-14T22:28:52.275Z,19.27
2018-12-14T22:31:18.140Z,21.67
2018-12-14T22:33:43.991Z,17.97
2018-12-14T22:36:09.910Z,21.53
2018-12-14T22:38:35.811Z,18.97
2018-12-14T22:41:01.748Z,17.67
2018-12-14T22:43:27.606Z,20.03
2018-12-14T22:45:53.504Z,16.87
2018-12-14T22:48:19.377Z,19.03
2018-12-14T22:50:45.405Z,18.37
2018-12-14T22:53:11.284Z,16.80
2018-12-14T22:55:37.178Z,16.77
2018-12-14T22:58:03.104Z,17.03
2018-12-14T23:00:29.086Z,17.87
2018-12-14T23:02:54.976Z,16.57
2018-12-14T23:05:20.945Z,16.33
2018-12-14T23:07:46.857Z,15.70
2018-12-14T23:10:12.873Z,16.20
2018-12-14T23:12:38.781Z,17.23
2018-12-14T23:15:05.496Z,16.17
2018-12-14T23:17:31.400Z,17.27
2018-12-14T23:19:57.329Z,16.70
2018-12-14T23:22:23.239Z,15.37
2018-12-14T23:24:49.182Z,17.70
2018-12-14T23:27:15.085Z,13.77
2018-12-14T23:29:40.972Z,14.70
2018-12-14T23:32:07.078Z,16.07
2018-12-14T23:34:32.966Z,14.03
2018-12-14T23:36:58.874Z,15.03
2018-12-14T23:39:24.779Z,14.10
2018-12-14T23:41:50.644Z,14.70
2018-12-14T23:44:16.514Z,12.97
2018-12-14T23:46:42.508Z,14.10
2018-12-14T23:49:08.459Z,13.20
2018-12-14T23:51:34.424Z,14.67
2018-12-14T23:54:00.403Z,14.77
2018-12-14T23:56:26.398Z,13.40
2018-12-14T23:58:53.007Z,14.23
